createdAt,value
2023-04-06T00:01:12.566Z,99886.39
2023-04-06T00:03:42.434Z,99882.54
2023-04-06T00:06:12.574Z,99880.71
2023-04-06T00:08:42.441Z,99879.91
2023-04-06T00:11:10.982Z,99871.14
2023-04-06T00:13:39.632Z,99880.45
2023-04-06T00:16:08.210Z,99877.05
2023-04-06T00:18:36.616Z,99881.52
2023-04-06T00:21:05.747Z,99877.43
2023-04-06T00:23:34.128Z,99884.50
2023-04-06T00:26:02.616Z,99878.21
2023-04-06T00:28:31.205Z,99874.05
2023-04-06T00:30:59.594Z,99874.38
2023-04-06T00:33:28.335Z,99874.38
2023-04-06T00:35:56.959Z,99871.24
2023-04-06T00:38:25.548Z,99867.95
2023-04-06T00:40:54.085Z,99869.02
2023-04-06T00:43:23.695Z,99870.98
2023-04-06T00:45:52.848Z,99865.77
2023-04-06T00:48:21.718Z,99865.05
2023-04-06T00:50:50.898Z,99866.61
2023-04-06T00:53:19.641Z,99862.46
2023-04-06T00:55:48.297Z,99864.07
2023-04-06T00:58:17.214Z,99864.42
2023-04-06T01:00:53.732Z,99863.55
2023-04-06T01:03:24.464Z,99859.73
2023-04-06T01:05:59.269Z,99858.15
2023-04-06T01:08:33.317Z,99854.56
2023-04-06T01:11:13.371Z,99855.58
2023-04-06T01:13:42.112Z,99855.90
2023-04-06T01:16:17.957Z,99848.73
2023-04-06T01:18:59.993Z,99848.36
2023-04-06T01:21:32.628Z,99848.77
2023-04-06T01:24:19.610Z,99847.16
2023-04-06T01:27:02.958Z,99853.27
2023-04-06T01:29:44.135Z,99848.21
2023-04-06T01:32:12.903Z,99851.89
2023-04-06T01:34:48.482Z,99853.59
2023-04-06T01:37:16.819Z,99849.77
2023-04-06T01:39:45.740Z,99851.67
2023-04-06T01:42:18.248Z,99847.48
2023-04-06T01:44:49.504Z,99846.41
2023-04-06T01:47:18.022Z,99843.18
2023-04-06T01:49:47.000Z,99840.96
2023-04-06T01:52:16.879Z,99840.77
2023-04-06T01:54:48.118Z,99832.96
2023-04-06T01:57:19.593Z,99829.65
2023-04-06T02:00:08.144Z,99833.50
2023-04-06T02:02:43.225Z,99827.06
2023-04-06T02:05:16.925Z,99825.88
2023-04-06T02:07:48.245Z,99822.42
2023-04-06T02:10:19.906Z,99822.94
2023-04-06T02:12:48.458Z,99817.38
2023-04-06T02:15:23.131Z,99814.38
2023-04-06T02:17:52.734Z,99814.16
2023-04-06T02:20:21.257Z,99815.16
2023-04-06T02:23:00.040Z,99809.23
2023-04-06T02:25:29.132Z,99806.33
2023-04-06T02:27:57.455Z,99802.02
2023-04-06T02:30:25.933Z,99804.44
2023-04-06T02:32:54.768Z,99814.48
2023-04-06T02:35:23.744Z,99814.27
2023-04-06T02:37:55.987Z,99815.45
2023-04-06T02:40:24.364Z,99815.08
2023-04-06T02:42:52.609Z,99812.96
2023-04-06T02:45:26.068Z,99817.77
2023-04-06T02:47:55.088Z,99814.28
2023-04-06T02:50:25.125Z,99813.17
2023-04-06T02:52:59.413Z,99808.86
2023-04-06T02:55:27.734Z,99802.73
2023-04-06T02:57:56.374Z,99801.50
2023-04-06T03:00:29.117Z,99797.65
2023-04-06T03:02:58.539Z,99796.91
2023-04-06T03:05:28.153Z,99798.31
2023-04-06T03:07:57.172Z,99796.54
2023-04-06T03:10:36.329Z,99801.38
2023-04-06T03:13:05.832Z,99809.50
2023-04-06T03:15:53.287Z,99807.91
2023-04-06T03:18:25.008Z,99810.96
2023-04-06T03:20:55.202Z,99810.89
2023-04-06T03:23:33.541Z,99803.02
2023-04-06T03:26:04.892Z,99808.06
2023-04-06T03:28:33.419Z,99810.64
2023-04-06T03:31:11.029Z,99808.86
2023-04-06T03:33:43.260Z,99814.73
2023-04-06T03:36:15.865Z,99813.48
2023-04-06T03:38:48.016Z,99810.85
2023-04-06T03:41:17.036Z,99812.58
2023-04-06T03:43:52.259Z,99811.53
2023-04-06T03:46:21.264Z,99806.83
2023-04-06T03:48:51.269Z,99810.30
2023-04-06T03:51:20.340Z,99813.73
2023-04-06T03:53:50.127Z,99817.40
2023-04-06T03:56:23.863Z,99819.47
2023-04-06T03:58:57.060Z,99819.77
2023-04-06T04:01:27.801Z,99822.10
2023-04-06T04:03:57.812Z,99826.90
2023-04-06T04:06:26.426Z,99827.52
2023-04-06T04:08:54.804Z,99834.61
2023-04-06T04:11:23.384Z,99833.98
2023-04-06T04:13:56.686Z,99837.39
2023-04-06T04:16:27.244Z,99839.52
2023-04-06T04:18:57.056Z,99837.52
2023-04-06T04:21:26.892Z,99834.59
2023-04-06T04:23:55.788Z,99831.55
2023-04-06T04:26:25.859Z,99834.46
2023-04-06T04:28:54.129Z,99834.44
2023-04-06T04:31:23.821Z,99839.10
2023-04-06T04:33:55.917Z,99834.66
2023-04-06T04:36:28.933Z,99838.42
2023-04-06T04:38:57.886Z,99840.60
2023-04-06T04:41:27.300Z,99847.29
2023-04-06T04:43:56.573Z,99844.66
2023-04-06T04:46:26.570Z,99846.34
2023-04-06T04:48:56.044Z,99845.59
2023-04-06T04:51:26.530Z,99849.39
2023-04-06T04:54:17.882Z,99853.92
2023-04-06T04:56:47.722Z,99858.77
2023-04-06T04:59:24.769Z,99852.83
2023-04-06T05:02:06.972Z,99849.64
2023-04-06T05:04:43.648Z,99852.18
2023-04-06T05:07:14.092Z,99852.42
2023-04-06T05:09:44.513Z,99852.14
2023-04-06T05:12:16.185Z,99858.12
2023-04-06T05:14:54.970Z,99858.69
2023-04-06T05:17:29.147Z,99857.45
2023-04-06T05:19:58.350Z,99856.13
2023-04-06T05:22:27.335Z,99852.59
2023-04-06T05:25:07.554Z,99854.80
2023-04-06T05:27:36.576Z,99849.48
2023-04-06T05:30:09.128Z,99850.10
2023-04-06T05:32:45.809Z,99855.73
2023-04-06T05:35:14.441Z,99854.45
2023-04-06T05:37:43.479Z,99852.65
2023-04-06T05:40:13.075Z,99854.86
2023-04-06T05:42:42.338Z,99855.48
2023-04-06T05:45:22.019Z,99852.58
2023-04-06T05:47:53.488Z,99852.50
2023-04-06T05:50:27.830Z,99851.38
2023-04-06T05:52:57.618Z,99857.20
2023-04-06T05:55:30.604Z,99854.55
2023-04-06T05:58:10.679Z,99853.50
2023-04-06T06:00:39.421Z,99860.21
2023-04-06T06:03:28.007Z,99856.58
2023-04-06T06:06:05.690Z,99859.02
2023-04-06T06:09:01.833Z,99854.11
2023-04-06T06:11:34.171Z,99848.89
2023-04-06T06:14:04.112Z,99844.20
2023-04-06T06:16:36.360Z,99854.74
2023-04-06T06:19:09.419Z,99853.72
2023-04-06T06:21:39.361Z,99853.39
2023-04-06T06:24:10.700Z,99855.73
2023-04-06T06:26:40.980Z,99859.15
2023-04-06T06:29:14.093Z,99859.52
2023-04-06T06:31:42.834Z,99857.46
2023-04-06T06:34:14.174Z,99861.23
2023-04-06T06:36:47.155Z,99859.59
2023-04-06T06:39:18.109Z,99861.42
2023-04-06T06:41:51.676Z,99857.48
2023-04-06T06:44:24.116Z,99854.76
2023-04-06T06:46:56.955Z,99863.02
2023-04-06T06:49:25.377Z,99864.89
2023-04-06T06:51:53.606Z,99870.27
2023-04-06T06:54:22.747Z,99867.42
2023-04-06T06:56:50.992Z,99866.25
2023-04-06T06:59:23.302Z,99868.72
2023-04-06T07:01:52.602Z,99869.77
2023-04-06T07:04:21.725Z,99863.05
2023-04-06T07:06:53.765Z,99858.09
2023-04-06T07:09:22.974Z,99869.78
2023-04-06T07:11:51.338Z,99870.45
2023-04-06T07:14:22.000Z,99871.49
2023-04-06T07:16:52.075Z,99871.80
2023-04-06T07:19:21.186Z,99870.20
2023-04-06T07:21:52.642Z,99867.33
2023-04-06T07:24:21.233Z,99871.98
2023-04-06T07:26:49.465Z,99869.77
2023-04-06T07:29:19.275Z,99869.96
2023-04-06T07:31:47.734Z,99876.56
2023-04-06T07:34:17.994Z,99877.96
2023-04-06T07:36:51.017Z,99881.29
2023-04-06T07:39:19.926Z,99880.10
2023-04-06T07:41:48.577Z,99873.39
2023-04-06T07:44:17.409Z,99877.05
2023-04-06T07:46:46.509Z,99882.74
2023-04-06T07:49:16.830Z,99885.70
2023-04-06T07:51:45.978Z,99888.10
2023-04-06T07:54:18.239Z,99891.16
2023-04-06T07:56:47.480Z,99888.92
2023-04-06T07:59:16.002Z,99893.42
2023-04-06T08:01:44.348Z,99890.39
2023-04-06T08:04:13.362Z,99892.52
2023-04-06T08:06:42.576Z,99893.80
2023-04-06T08:09:15.730Z,99893.74
2023-04-06T08:11:45.934Z,99890.94
2023-04-06T08:14:14.424Z,99897.54
2023-04-06T08:16:43.760Z,99898.17
2023-04-06T08:19:12.579Z,99899.57
2023-04-06T08:21:42.156Z,99896.48
2023-04-06T08:24:10.633Z,99894.89
2023-04-06T08:26:39.221Z,99900.89
2023-04-06T08:29:10.496Z,99896.21
2023-04-06T08:31:39.128Z,99900.09
2023-04-06T08:34:10.099Z,99899.21
2023-04-06T08:36:41.507Z,99899.73
2023-04-06T08:39:09.720Z,99897.70
2023-04-06T08:41:38.078Z,99891.00
2023-04-06T08:44:06.461Z,99895.11
2023-04-06T08:46:34.936Z,99892.09
2023-04-06T08:49:03.866Z,99892.70
2023-04-06T08:51:32.601Z,99898.60
2023-04-06T08:54:03.996Z,99899.64
2023-04-06T08:56:33.163Z,99898.50
2023-04-06T08:59:01.578Z,99901.52
2023-04-06T09:01:30.626Z,99899.61
2023-04-06T09:04:01.884Z,99901.95
2023-04-06T09:06:31.943Z,99900.63
2023-04-06T09:09:00.491Z,99906.14
2023-04-06T09:11:29.166Z,99904.47
2023-04-06T09:14:00.493Z,99907.64
2023-04-06T09:16:30.028Z,99908.23
2023-04-06T09:19:05.261Z,99911.88
2023-04-06T09:21:34.221Z,99912.82
2023-04-06T09:24:03.216Z,99913.74
2023-04-06T09:26:49.132Z,99917.82
2023-04-06T09:29:25.638Z,99920.48
2023-04-06T11:12:59.979Z,100003.52
2023-04-06T11:15:28.561Z,100004.80
2023-04-06T11:17:56.936Z,100011.30
2023-04-06T11:20:25.483Z,100009.89
2023-04-06T11:22:54.263Z,100010.58
2023-04-06T11:25:22.627Z,100010.98
2023-04-06T11:27:51.548Z,100010.22
2023-04-06T11:30:20.639Z,100013.38
2023-04-06T11:32:49.317Z,100013.07
2023-04-06T11:35:24.348Z,100014.46
2023-04-06T11:37:52.769Z,100014.44
2023-04-06T11:40:25.826Z,100016.84
2023-04-06T11:42:56.048Z,100018.71
2023-04-06T11:45:24.238Z,100019.45
2023-04-06T11:48:01.651Z,100019.92
2023-04-06T11:50:35.456Z,100020.52
2023-04-06T11:53:07.557Z,100019.05
2023-04-06T11:55:40.288Z,100016.94
2023-04-06T11:58:10.661Z,100014.38
2023-04-06T12:00:39.818Z,100015.38
2023-04-06T12:03:08.881Z,100017.67
2023-04-06T12:05:40.052Z,100014.23
2023-04-06T12:08:09.968Z,100016.88
2023-04-06T12:10:38.764Z,100013.91
2023-04-06T12:13:07.306Z,100014.19
2023-04-06T12:15:35.919Z,100010.69
2023-04-06T12:18:04.445Z,100012.10
2023-04-06T12:20:38.712Z,100013.66
2023-04-06T12:23:06.985Z,100015.02
2023-04-06T12:25:35.825Z,100012.25
2023-04-06T12:28:04.742Z,100012.73
2023-04-06T12:30:33.574Z,100013.61
2023-04-06T12:33:04.329Z,100010.52
2023-04-06T12:35:36.456Z,100015.13
2023-04-06T12:38:04.811Z,100011.21
2023-04-06T12:40:38.063Z,100013.69
2023-04-06T12:43:06.362Z,100015.98
2023-04-06T12:45:35.326Z,100012.96
2023-04-06T12:48:03.916Z,100016.48
2023-04-06T12:50:32.382Z,100016.96
2023-04-06T12:53:05.724Z,100015.92
2023-04-06T12:55:35.629Z,100020.84
2023-04-06T12:58:12.749Z,100017.51
2023-04-06T13:00:41.666Z,100020.97
2023-04-06T13:03:10.861Z,100016.70
2023-04-06T13:05:48.482Z,100014.84
2023-04-06T13:08:20.090Z,100017.40
2023-04-06T13:10:49.395Z,100021.17
2023-04-06T13:13:21.529Z,100024.38
2023-04-06T13:15:49.833Z,100023.79
2023-04-06T13:18:18.667Z,100029.16
2023-04-06T13:20:48.280Z,100031.98
2023-04-06T13:23:17.840Z,100028.85
2023-04-06T13:25:46.923Z,100032.46
2023-04-06T13:28:15.443Z,100034.02
2023-04-06T13:30:44.008Z,100036.02
2023-04-06T13:33:14.113Z,100041.67
2023-04-06T13:35:46.810Z,100039.14
2023-04-06T13:38:16.285Z,100036.31
2023-04-06T13:40:45.177Z,100038.34
2023-04-06T13:43:13.559Z,100031.75
2023-04-06T13:45:43.621Z,100030.55
2023-04-06T13:48:12.044Z,100031.23
2023-04-06T13:50:40.680Z,100030.65
2023-04-06T13:53:08.960Z,100031.59
2023-04-06T13:55:37.801Z,100030.31
2023-04-06T13:58:06.189Z,100033.45
2023-04-06T14:00:34.999Z,100037.83
2023-04-06T14:03:21.496Z,100038.80
2023-04-06T14:05:51.455Z,100039.30
2023-04-06T14:08:20.469Z,100042.80
2023-04-06T14:10:48.738Z,100041.38
2023-04-06T14:13:18.154Z,100038.45
2023-04-06T14:15:46.393Z,100040.21
2023-04-06T14:18:15.081Z,100038.16
2023-04-06T14:20:43.288Z,100037.33
2023-04-06T14:23:12.925Z,100037.80
2023-04-06T14:25:41.621Z,100038.52
2023-04-06T14:28:09.762Z,100034.98
2023-04-06T14:30:39.361Z,100034.25
2023-04-06T14:33:08.816Z,100039.11
2023-04-06T14:35:40.033Z,100037.54
2023-04-06T14:38:08.193Z,100040.14
2023-04-06T14:40:38.089Z,100039.67
2023-04-06T14:43:07.124Z,100040.55
2023-04-06T14:45:38.060Z,100039.04
2023-04-06T14:48:13.169Z,100043.38
2023-04-06T14:50:42.262Z,100046.25
2023-04-06T14:53:12.610Z,100047.20
2023-04-06T14:55:43.056Z,100044.96
2023-04-06T14:58:11.638Z,100043.59
2023-04-06T15:00:40.590Z,100047.04
2023-04-06T15:03:09.836Z,100044.05
2023-04-06T15:05:39.656Z,100046.69
2023-04-06T15:08:10.297Z,100050.55
2023-04-06T15:10:38.413Z,100048.16
2023-04-06T15:13:11.766Z,100049.59
2023-04-06T15:15:44.043Z,100047.15
2023-04-06T15:18:13.244Z,100041.26
2023-04-06T15:20:42.046Z,100045.36
2023-04-06T15:23:10.965Z,100048.43
2023-04-06T15:25:42.357Z,100050.09
2023-04-06T15:28:11.617Z,100057.00
2023-04-06T15:30:39.903Z,100057.60
2023-04-06T15:33:10.829Z,100058.94
2023-04-06T15:35:43.724Z,100058.60
2023-04-06T15:38:12.380Z,100060.27
2023-04-06T15:40:48.241Z,100059.90
2023-04-06T15:43:16.864Z,100061.76
2023-04-06T15:45:45.439Z,100058.04
2023-04-06T15:48:16.214Z,100061.88
2023-04-06T15:50:44.737Z,100059.90
2023-04-06T15:53:13.617Z,100063.58
2023-04-06T15:55:42.311Z,100067.17
2023-04-06T15:58:10.680Z,100070.08
2023-04-06T16:00:39.623Z,100073.02
2023-04-06T16:03:09.037Z,100072.45
2023-04-06T16:05:48.459Z,100073.68
2023-04-06T16:08:26.724Z,100075.33
2023-04-06T16:10:56.020Z,100080.83
2023-04-06T16:13:24.514Z,100084.42
2023-04-06T16:15:53.155Z,100091.06
2023-04-06T16:18:22.518Z,100087.52
2023-04-06T16:20:50.914Z,100097.95
2023-04-06T16:23:19.530Z,100098.27
2023-04-06T16:25:48.163Z,100104.41
2023-04-06T16:28:17.740Z,100104.23
2023-04-06T16:30:46.881Z,100106.91
2023-04-06T16:33:17.200Z,100114.80
2023-04-06T16:35:46.896Z,100117.23
2023-04-06T16:38:16.288Z,100122.46
2023-04-06T16:40:45.664Z,100130.01
2023-04-06T16:43:14.464Z,100129.05
2023-04-06T16:45:51.088Z,100130.94
2023-04-06T16:48:21.670Z,100135.19
2023-04-06T16:50:49.988Z,100134.78
2023-04-06T16:53:18.177Z,100143.83
2023-04-06T16:55:46.391Z,100146.58
2023-04-06T16:58:15.763Z,100143.00
2023-04-06T17:00:44.131Z,100143.98
2023-04-06T17:03:13.928Z,100153.13
2023-04-06T17:05:43.029Z,100154.77
2023-04-06T17:08:11.606Z,100153.45
2023-04-06T17:10:46.907Z,100150.19
2023-04-06T17:13:29.731Z,100153.54
2023-04-06T17:15:58.245Z,100158.98
2023-04-06T17:18:26.714Z,100157.96
2023-04-06T17:20:55.355Z,100158.70
2023-04-06T17:23:25.386Z,100162.23
2023-04-06T17:25:59.298Z,100163.01
2023-04-06T17:28:29.082Z,100165.38
2023-04-06T17:30:58.470Z,100167.11
2023-04-06T17:33:29.734Z,100168.52
2023-04-06T17:35:57.958Z,100170.98
2023-04-06T17:38:29.184Z,100173.11
2023-04-06T17:40:57.631Z,100178.90
2023-04-06T17:43:25.926Z,100179.85
2023-04-06T17:45:54.151Z,100184.59
2023-04-06T17:48:22.454Z,100192.27
2023-04-06T17:50:50.883Z,100193.55
2023-04-06T17:53:20.469Z,100194.02
2023-04-06T17:55:48.627Z,100202.31
2023-04-06T17:58:16.941Z,100204.79
2023-04-06T18:00:45.836Z,100207.89
2023-04-06T18:03:15.213Z,100213.11
2023-04-06T18:05:44.091Z,100212.98
2023-04-06T18:08:12.946Z,100211.25
2023-04-06T18:10:48.708Z,100212.45
2023-04-06T18:13:17.620Z,100215.70
2023-04-06T18:15:46.171Z,100217.59
2023-04-06T18:18:18.102Z,100218.95
2023-04-06T18:20:46.493Z,100220.69
2023-04-06T18:23:19.636Z,100223.08
2023-04-06T18:25:47.881Z,100221.98
2023-04-06T18:28:18.609Z,100223.55
2023-04-06T18:30:48.010Z,100220.19
2023-04-06T18:33:16.418Z,100220.95
2023-04-06T18:35:45.074Z,100233.86
2023-04-06T18:38:13.200Z,100236.59
2023-04-06T18:40:41.697Z,100238.61
2023-04-06T18:43:11.489Z,100236.77
2023-04-06T18:45:39.718Z,100237.84
2023-04-06T18:48:10.031Z,100238.33
2023-04-06T18:50:38.608Z,100239.02
2023-04-06T18:53:07.889Z,100254.34
2023-04-06T18:55:36.649Z,100260.48
2023-04-06T18:58:08.504Z,100263.98
2023-04-06T19:00:36.742Z,100270.48
2023-04-06T19:03:08.848Z,100278.01
2023-04-06T19:05:37.608Z,100280.91
2023-04-06T19:08:06.378Z,100289.04
2023-04-06T19:10:36.171Z,100297.97
2023-04-06T19:13:06.178Z,100301.45
2023-04-06T19:15:34.942Z,100307.29
2023-04-06T19:18:03.582Z,100310.91
2023-04-06T19:20:34.750Z,100314.73
2023-04-06T19:23:04.054Z,100306.27
2023-04-06T19:25:32.429Z,100313.82
2023-04-06T19:28:00.806Z,100310.68
2023-04-06T19:30:30.717Z,100312.04
2023-04-06T19:33:03.835Z,100318.20
2023-04-06T19:35:32.836Z,100319.88
2023-04-06T19:38:01.169Z,100317.69
2023-04-06T19:40:29.820Z,100320.31
2023-04-06T19:42:57.979Z,100321.31
2023-04-06T19:45:26.186Z,100319.50
2023-04-06T19:47:54.802Z,100319.48
2023-04-06T19:50:23.878Z,100316.90
2023-04-06T19:52:56.312Z,100319.67
2023-04-06T19:55:27.570Z,100321.98
2023-04-06T19:57:57.383Z,100327.31
2023-04-06T20:00:25.862Z,100331.20
2023-04-06T20:02:54.680Z,100336.14
2023-04-06T20:05:23.581Z,100338.34
2023-04-06T20:07:52.041Z,100340.97
2023-04-06T20:10:27.436Z,100344.09
2023-04-06T20:12:55.810Z,100348.89
2023-04-06T20:15:24.581Z,100352.84
2023-04-06T20:17:53.476Z,100353.23
2023-04-06T20:20:23.397Z,100357.92
2023-04-06T20:22:51.702Z,100357.95
2023-04-06T20:25:20.239Z,100358.27
2023-04-06T20:27:49.256Z,100356.51
2023-04-06T20:30:17.485Z,100359.78
2023-04-06T20:32:46.634Z,100364.59
2023-04-06T20:35:14.979Z,100368.38
2023-04-06T20:37:43.321Z,100367.65
2023-04-06T20:40:12.857Z,100373.92
2023-04-06T20:42:41.926Z,100376.50
2023-04-06T20:45:11.547Z,100381.02
2023-04-06T20:47:40.840Z,100382.45
2023-04-06T20:50:11.536Z,100385.88
2023-04-06T20:52:40.775Z,100386.54
2023-04-06T20:55:11.942Z,100388.45
2023-04-06T20:57:41.949Z,100390.22
2023-04-06T21:00:10.828Z,100392.81
2023-04-06T21:02:41.513Z,100399.33
2023-04-06T21:05:10.624Z,100401.72
2023-04-06T21:07:38.784Z,100407.96
2023-04-06T21:10:08.582Z,100409.70
2023-04-06T21:12:37.645Z,100413.75
2023-04-06T21:15:06.554Z,100412.56
2023-04-06T21:17:34.936Z,100417.39
2023-04-06T21:20:04.220Z,100418.52
2023-04-06T21:22:32.500Z,100422.91
2023-04-06T21:25:02.645Z,100421.74
2023-04-06T21:27:31.482Z,100427.70
2023-04-06T21:30:02.201Z,100425.56
2023-04-06T21:32:30.902Z,100429.30
2023-04-06T21:34:59.171Z,100431.06
2023-04-06T21:37:29.267Z,100434.52
2023-04-06T21:39:57.864Z,100440.25
2023-04-06T21:42:26.057Z,100435.88
2023-04-06T21:44:54.422Z,100436.98
2023-04-06T21:47:22.739Z,100438.47
2023-04-06T21:49:51.325Z,100447.61
2023-04-06T21:52:19.518Z,100444.92
2023-04-06T21:54:48.476Z,100445.09
2023-04-06T21:57:16.689Z,100447.75
2023-04-06T21:59:45.344Z,100449.95
2023-04-06T22:02:13.581Z,100450.27
2023-04-06T22:04:48.241Z,100456.41
2023-04-06T22:07:17.622Z,100458.78
2023-04-06T22:09:50.821Z,100461.38
2023-04-06T22:12:23.628Z,100462.72
2023-04-06T22:14:51.950Z,100470.99
2023-04-06T22:17:20.184Z,100467.36
2023-04-06T22:19:49.163Z,100470.44
2023-04-06T22:22:17.544Z,100468.70
2023-04-06T22:24:45.848Z,100470.17
2023-04-06T22:27:14.156Z,100474.14
2023-04-06T22:29:42.583Z,100470.80
2023-04-06T22:32:12.085Z,100470.70
2023-04-06T22:34:41.275Z,100472.88
2023-04-06T22:37:09.442Z,100473.17
2023-04-06T22:39:38.215Z,100476.23
2023-04-06T22:42:06.404Z,100479.67
2023-04-06T22:44:34.788Z,100474.61
2023-04-06T22:47:03.037Z,100480.73
2023-04-06T22:49:31.157Z,100481.08
2023-04-06T22:51:59.451Z,100485.23
2023-04-06T22:54:27.781Z,100487.36
2023-04-06T22:56:56.792Z,100485.00
2023-04-06T22:59:25.077Z,100488.03
2023-04-06T23:01:54.043Z,100487.73
2023-04-06T23:04:22.926Z,100488.09
2023-04-06T23:06:52.152Z,100488.54
2023-04-06T23:09:20.510Z,100492.30
2023-04-06T23:11:49.623Z,100492.88
2023-04-06T23:14:18.419Z,100493.36
2023-04-06T23:16:47.262Z,100495.48
2023-04-06T23:19:15.796Z,100497.33
2023-04-06T23:21:44.933Z,100494.74
2023-04-06T23:24:13.740Z,100496.93
2023-04-06T23:26:42.245Z,100497.40
2023-04-06T23:29:11.141Z,100498.75
2023-04-06T23:31:39.326Z,100506.91
2023-04-06T23:34:07.504Z,100507.80
2023-04-06T23:36:38.932Z,100508.70
2023-04-06T23:39:07.402Z,100512.16
2023-04-06T23:41:35.717Z,100513.36
2023-04-06T23:44:03.847Z,100519.42
2023-04-06T23:46:32.417Z,100519.84
2023-04-06T23:49:00.932Z,100522.96
2023-04-06T23:51:29.773Z,100522.08
2023-04-06T23:54:00.536Z,100525.46
2023-04-06T23:56:28.648Z,100521.84
2023-04-06T23:58:56.792Z,100522.95
